Au Gres, Michigan
Current Conditions -  °F | °C
As of 7:13 AM on Sunday 25 Jan 2015 (Local Time) from KOSC Reporting Station
Light Snow Light Snow  
Wind Chill:   Ceiling: 2300
Heat Index: 13°   Visibility: 10mi
Dew Point:   Wind: 7mph
Humidity: 78%   Direction: 340°NNW
Pressure: 29.91"   Gusts: NA
Location:  44.05°N, 83.7°W
Report Text: KOSC 251213Z AUTO 34006KT 10SM -SN OVC023 M10/M13 A2991 RMK AO2 T11051136
Loading
Personal Weather Stations






























Interactive Weather Map New forecast layout! Learn more

10-Day Weather Forecast

Advertisements
Track Severe Weather on mobile